Time;durP1;ratioP1;P1;durP2;ratioP2;P2;SDS_P1;SDS_P2;PMS_P1;PMS_P2;Temp;Humidity;BMP_temperature;BMP_pressure;BME280_temperature;BME280_humidity;BME280_pressure;Samples;Min_cycle;Max_cycle;Signal;HPM_P1;HPM_P2
2022/03/03 00:01:37;;;;;;;47.70;22.20;;;-0.40;99.90;;;;;;6206625;23;20318;-85
2022/03/03 00:04:03;;;;;;;40.28;20.35;;;-0.40;99.90;;;;;;6156680;23;20028;-85
2022/03/03 00:06:29;;;;;;;47.90;20.15;;;-0.40;99.90;;;;;;6181419;23;20025;-85
2022/03/03 00:08:55;;;;;;;37.05;18.65;;;-0.40;99.90;;;;;;6181705;23;20027;-84
2022/03/03 00:11:21;;;;;;;;;;;-0.40;99.90;;;;;;6181971;23;20024;-85
2022/03/03 00:13:46;;;;;;;36.15;17.42;;;0.30;99.90;;;;;;6180734;23;20374;-84
2022/03/03 00:16:13;;;;;;;39.40;19.80;;;-0.30;99.90;;;;;;6180915;23;20013;-85
2022/03/03 00:18:38;;;;;;;42.25;21.08;;;-0.30;99.90;;;;;;6156631;23;20024;-84
2022/03/03 00:21:04;;;;;;;36.38;16.42;;;-0.40;99.90;;;;;;6156764;23;20020;-85
2022/03/03 00:23:30;;;;;;;;;;;-0.50;99.90;;;;;;6157778;23;20092;-85
2022/03/03 00:25:56;;;;;;;39.20;19.30;;;0.00;99.90;;;;;;6158341;23;19916;-85
2022/03/03 00:28:22;;;;;;;41.63;20.60;;;-0.40;99.90;;;;;;6183537;23;20020;-85
2022/03/03 00:30:48;;;;;;;51.92;21.95;;;-0.40;99.90;;;;;;6182567;23;20016;-85
2022/03/03 00:33:13;;;;;;;37.83;19.80;;;-0.40;99.90;;;;;;6158998;23;20029;-84
2022/03/03 00:35:39;;;;;;;34.70;18.45;;;-0.40;99.90;;;;;;6160032;23;20017;-85
2022/03/03 00:38:05;;;;;;;46.15;22.15;;;-0.30;99.90;;;;;;6182995;23;20440;-84
2022/03/03 00:40:31;;;;;;;46.20;22.00;;;-0.30;99.90;;;;;;6186137;23;20416;-84
2022/03/03 00:42:56;;;;;;;45.20;21.42;;;-0.30;99.90;;;;;;6157940;23;20452;-84
2022/03/03 00:45:22;;;;;;;42.70;17.80;;;-0.30;99.90;;;;;;6157894;23;20060;-84
2022/03/03 00:47:49;;;;;;;50.50;23.13;;;-0.40;99.90;;;;;;6157699;23;20020;-84
2022/03/03 00:50:15;;;;;;;43.88;20.67;;;-0.50;99.90;;;;;;6183877;23;20021;-84
2022/03/03 00:52:41;;;;;;;52.03;20.08;;;-0.40;99.90;;;;;;6158238;23;20017;-84
2022/03/03 00:55:08;;;;;;;44.78;22.08;;;-0.40;99.90;;;;;;6182793;23;20021;-84
2022/03/03 00:57:34;;;;;;;51.17;23.05;;;-0.40;99.90;;;;;;6157635;23;20500;-84
2022/03/03 01:00:00;;;;;;;;;;;-0.40;99.90;;;;;;6183057;23;20025;-84
2022/03/03 01:02:26;;;;;;;42.92;18.95;;;-0.30;99.90;;;;;;6182713;23;19974;-84
2022/03/03 01:04:52;;;;;;;48.40;21.27;;;-0.40;99.90;;;;;;6157270;23;20025;-84
2022/03/03 01:07:17;;;;;;;;;;;-0.40;99.90;;;;;;6182768;23;20021;-84
2022/03/03 01:09:43;;;;;;;38.80;19.80;;;-0.40;99.90;;;;;;6157941;23;19991;-84
2022/03/03 01:12:09;;;;;;;34.63;19.60;;;-0.40;99.90;;;;;;6182751;23;20025;-84
2022/03/03 01:14:35;;;;;;;47.15;19.17;;;-0.50;99.90;;;;;;6159296;23;20083;-84
2022/03/03 01:17:00;;;;;;;;;;;-0.50;99.90;;;;;;6135505;23;20017;-84
2022/03/03 01:19:26;;;;;;;39.00;19.05;;;-0.60;99.90;;;;;;6184258;23;19960;-84
2022/03/03 01:21:52;;;;;;;;;;;-0.60;99.90;;;;;;6185200;23;20386;-84
2022/03/03 01:24:17;;;;;;;34.72;17.75;;;-0.60;99.90;;;;;;6184704;23;19912;-85
2022/03/03 01:26:43;;;;;;;34.55;18.38;;;-0.70;99.90;;;;;;6185082;23;20056;-83
2022/03/03 01:29:10;;;;;;;38.78;18.70;;;-0.70;99.90;;;;;;6185175;23;20017;-84
2022/03/03 01:31:36;;;;;;;34.22;17.70;;;-0.80;99.90;;;;;;6184916;23;20028;-84
2022/03/03 01:34:02;;;;;;;43.72;19.02;;;-0.90;99.90;;;;;;6159232;23;20027;-84
2022/03/03 01:36:27;;;;;;;;;;;-1.00;99.90;;;;;;6160122;23;20441;-84
2022/03/03 01:38:53;;;;;;;38.58;18.75;;;-1.00;99.90;;;;;;6159510;23;19948;-84
2022/03/03 01:41:19;;;;;;;41.92;17.75;;;-1.10;99.90;;;;;;6185236;23;20249;-84
2022/03/03 01:43:44;;;;;;;43.85;19.25;;;-1.20;99.90;;;;;;6184041;23;20448;-84
2022/03/03 01:46:11;;;;;;;29.17;15.35;;;-1.20;99.90;;;;;;6159157;23;20029;-84
2022/03/03 01:48:36;;;;;;;39.60;17.85;;;-1.20;99.90;;;;;;6158535;23;20017;-84
2022/03/03 01:51:02;;;;;;;43.10;17.95;;;-1.20;99.90;;;;;;6183869;23;20060;-84
2022/03/03 01:53:28;;;;;;;33.75;17.42;;;-1.30;99.90;;;;;;6160388;23;20021;-84
2022/03/03 01:55:55;;;;;;;;;;;-1.40;99.90;;;;;;6160948;23;20040;-84
2022/03/03 01:58:21;;;;;;;38.33;17.98;;;0.00;99.90;;;;;;6186885;23;20320;-84
2022/03/03 02:00:49;;;;;;;;;;;-1.50;99.90;;;;;;6161144;23;20024;-84
2022/03/03 02:03:14;;;;;;;27.63;15.70;;;-0.20;99.90;;;;;;6209020;23;19916;-84
2022/03/03 02:05:40;;;;;;;32.40;19.73;;;-1.60;99.90;;;;;;6184634;23;20330;-84
2022/03/03 02:08:06;;;;;;;40.45;17.67;;;-1.60;99.90;;;;;;6134641;23;20048;-84
2022/03/03 02:10:32;;;;;;;41.00;19.15;;;-1.70;99.90;;;;;;6184361;23;20029;-84
2022/03/03 02:12:58;;;;;;;;;;;-1.60;99.90;;;;;;6184022;23;20021;-84
2022/03/03 02:15:23;;;;;;;28.67;16.83;;;-1.60;99.90;;;;;;6159041;23;19959;-84
2022/03/03 02:17:49;;;;;;;;;;;-1.60;99.90;;;;;;6184150;23;20017;-85
2022/03/03 02:20:23;;;;;;;36.22;16.70;;;-1.60;99.90;;;;;;6158961;23;19912;-84
2022/03/03 02:22:50;;;;;;;29.02;17.42;;;-1.60;99.90;;;;;;6183428;23;20016;-85
2022/03/03 02:25:16;;;;;;;34.60;18.38;;;-1.60;99.90;;;;;;6209256;23;20335;-85
2022/03/03 02:27:43;;;;;;;32.90;16.63;;;-1.20;99.90;;;;;;6183973;23;20028;-84
2022/03/03 02:30:11;;;;;;;39.55;18.98;;;-1.50;99.90;;;;;;6158840;23;20340;-85
2022/03/03 02:32:37;;;;;;;34.78;20.10;;;-1.60;99.90;;;;;;6183366;23;20016;-85
2022/03/03 02:35:03;;;;;;;41.90;17.70;;;-1.70;99.90;;;;;;6182840;23;20049;-85
2022/03/03 02:37:36;;;;;;;;;;;-1.70;99.90;;;;;;6184411;23;20377;-85
2022/03/03 02:40:08;;;;;;;32.92;18.65;;;-1.70;99.90;;;;;;6209349;23;19919;-85
2022/03/03 02:42:34;;;;;;;36.40;19.63;;;-1.80;99.90;;;;;;6208568;23;20048;-85
2022/03/03 02:45:01;;;;;;;49.40;20.50;;;-1.80;99.90;;;;;;6183370;23;20028;-84
2022/03/03 02:47:27;;;;;;;34.40;18.65;;;-1.70;99.90;;;;;;6183488;23;20017;-84
2022/03/03 02:49:53;;;;;;;39.42;20.15;;;-1.70;99.90;;;;;;6207893;23;20415;-84
2022/03/03 02:52:19;;;;;;;37.20;20.25;;;-0.90;99.90;;;;;;6184630;23;20017;-85
2022/03/03 02:54:44;;;;;;;47.03;19.70;;;-1.80;99.90;;;;;;6183843;23;20554;-84
2022/03/03 02:59:54;;;;;;;33.45;19.42;;;-1.90;99.90;;;;;;6208445;23;19916;-85
2022/03/03 03:02:20;;;;;;;33.08;16.83;;;-1.70;99.90;;;;;;6110538;23;20017;-85
2022/03/03 03:04:46;;;;;;;37.72;19.15;;;-2.00;99.90;;;;;;6183545;23;20428;-84
2022/03/03 03:07:11;;;;;;;34.95;18.50;;;-2.00;99.90;;;;;;6183569;23;20028;-84
2022/03/03 03:09:37;;;;;;;37.72;17.83;;;-2.10;99.90;;;;;;6183352;23;20507;-84
2022/03/03 03:12:04;;;;;;;30.98;18.02;;;-2.20;99.90;;;;;;6183712;23;20021;-84
2022/03/03 03:14:30;;;;;;;36.25;17.52;;;-2.20;99.90;;;;;;6158070;23;20067;-85
2022/03/03 03:16:56;;;;;;;42.72;19.48;;;-2.20;99.90;;;;;;6182820;23;20076;-84
2022/03/03 03:19:21;;;;;;;;;;;-2.00;99.90;;;;;;6158299;23;20076;-84
2022/03/03 03:21:47;;;;;;;41.05;18.40;;;-2.20;99.90;;;;;;6208131;23;20036;-84
2022/03/03 03:24:14;;;;;;;;;;;-0.60;99.90;;;;;;6134271;23;20021;-84
2022/03/03 03:26:39;;;;;;;36.47;18.73;;;-2.10;99.90;;;;;;6208513;23;20268;-84
2022/03/03 03:29:05;;;;;;;36.08;17.33;;;-2.00;99.90;;;;;;6182767;23;20167;-84
2022/03/03 03:31:31;;;;;;;;;;;-2.00;99.90;;;;;;6158566;23;20023;-85
2022/03/03 03:33:56;;;;;;;37.83;16.30;;;-1.70;99.90;;;;;;6181840;23;20243;-84
2022/03/03 03:36:22;;;;;;;40.15;16.10;;;-2.00;99.90;;;;;;6182998;23;20070;-84
2022/03/03 03:38:48;;;;;;;;;;;-2.10;99.90;;;;;;6183136;23;20108;-84
2022/03/03 03:41:13;;;;;;;33.05;17.83;;;-1.10;99.90;;;;;;6182753;23;19920;-84
2022/03/03 03:43:39;;;;;;;30.50;18.55;;;-2.00;99.90;;;;;;6182925;23;20020;-84
2022/03/03 03:46:05;;;;;;;;;;;-1.90;99.90;;;;;;6134120;23;20449;-84
2022/03/03 03:48:30;;;;;;;29.23;17.70;;;-1.90;99.90;;;;;;6158026;23;19966;-84
2022/03/03 03:50:56;;;;;;;;;;;-1.90;99.90;;;;;;6183219;23;20013;-83
2022/03/03 03:53:23;;;;;;;31.77;20.05;;;-1.80;99.90;;;;;;6207574;23;20247;-84
2022/03/03 03:55:49;;;;;;;39.72;20.23;;;-1.70;99.90;;;;;;6183502;23;20664;-83
2022/03/03 03:58:17;;;;;;;36.92;17.00;;;-1.70;99.90;;;;;;6183602;23;20088;-83
2022/03/03 04:00:42;;;;;;;47.58;21.17;;;-1.20;99.90;;;;;;6183284;23;20392;-84
2022/03/03 04:03:08;;;;;;;37.55;18.90;;;-1.50;99.90;;;;;;6182292;23;20017;-83
2022/03/03 04:05:35;;;;;;;;;;;-1.40;99.90;;;;;;6158361;23;20024;-84
2022/03/03 04:08:01;;;;;;;38.67;18.60;;;-1.30;99.90;;;;;;6182927;23;19979;-83
2022/03/03 04:10:28;;;;;;;;;;;-1.30;99.90;;;;;;6183027;23;20356;-84
2022/03/03 04:12:54;;;;;;;;;;;-1.30;99.90;;;;;;6208117;23;19995;-84
2022/03/03 04:15:20;;;;;;;37.42;18.80;;;-0.10;99.90;;;;;;6207506;23;19920;-84
2022/03/03 04:17:46;;;;;;;37.65;18.67;;;-1.30;99.90;;;;;;6182237;23;20021;-84
2022/03/03 04:20:12;;;;;;;38.67;18.63;;;-1.30;99.90;;;;;;6181832;23;20021;-83
2022/03/03 04:22:37;;;;;;;;;;;-1.20;99.90;;;;;;6182854;23;20017;-84
2022/03/03 04:25:04;;;;;;;36.28;18.00;;;-1.20;99.90;;;;;;6157538;23;20006;-84
2022/03/03 04:27:29;;;;;;;50.33;20.92;;;-1.30;99.90;;;;;;6182484;23;20123;-83
2022/03/03 04:29:55;;;;;;;41.58;18.38;;;-0.60;99.90;;;;;;6181867;23;20456;-84
2022/03/03 04:32:21;;;;;;;45.25;20.83;;;-1.30;99.90;;;;;;6157927;23;20052;-83
2022/03/03 04:34:46;;;;;;;;;;;-1.40;99.90;;;;;;6158980;23;20028;-84
2022/03/03 04:37:12;;;;;;;47.25;20.02;;;-1.40;99.90;;;;;;6182713;23;20362;-84
2022/03/03 04:39:38;;;;;;;;;;;-1.40;99.90;;;;;;6182742;23;20013;-83
2022/03/03 04:42:04;;;;;;;38.83;19.98;;;-1.40;99.90;;;;;;6182861;23;19923;-84
2022/03/03 04:44:29;;;;;;;;;;;-1.40;99.90;;;;;;6183108;23;20020;-84
2022/03/03 04:46:55;;;;;;;29.58;16.92;;;-1.40;99.90;;;;;;6182853;23;19987;-84
2022/03/03 04:49:21;;;;;;;35.13;17.75;;;-1.40;99.90;;;;;;6183846;23;20096;-83
2022/03/03 04:51:47;;;;;;;;;;;-1.40;99.90;;;;;;6160122;23;20017;-84
2022/03/03 04:54:12;;;;;;;38.00;16.88;;;-1.40;99.90;;;;;;6184314;23;20320;-83
2022/03/03 04:56:39;;;;;;;33.72;18.10;;;-1.50;99.90;;;;;;6186746;23;20074;-84
2022/03/03 04:59:05;;;;;;;27.98;17.13;;;-1.40;99.90;;;;;;6163532;23;20096;-83
2022/03/03 05:01:31;;;;;;;40.85;19.98;;;-1.50;99.90;;;;;;6184050;23;20017;-84
2022/03/03 05:03:57;;;;;;;38.85;20.48;;;-1.50;99.90;;;;;;6183406;23;20322;-83
2022/03/03 05:06:23;;;;;;;36.67;18.70;;;0.10;99.90;;;;;;6183585;23;20056;-83
2022/03/03 05:08:48;;;;;;;27.60;16.45;;;-1.50;99.90;;;;;;6183937;23;20348;-83
2022/03/03 05:11:14;;;;;;;34.55;17.85;;;-1.50;99.90;;;;;;6208757;23;20017;-84
2022/03/03 05:13:40;;;;;;;;;;;-1.50;99.90;;;;;;6184467;23;20020;-84
2022/03/03 05:16:05;;;;;;;29.42;17.85;;;-0.30;99.90;;;;;;6159211;23;19912;-83
2022/03/03 05:18:31;;;;;;;40.25;18.75;;;-1.60;99.90;;;;;;6183910;23;20326;-83
2022/03/03 05:20:57;;;;;;;36.63;19.25;;;-1.60;99.90;;;;;;6185567;23;20028;-83
2022/03/03 05:23:23;;;;;;;;;;;-1.60;99.90;;;;;;6189367;23;20021;-84
2022/03/03 05:25:49;;;;;;;42.25;20.15;;;-1.60;99.90;;;;;;6188826;23;20026;-84
2022/03/03 05:28:14;;;;;;;;;;;-1.60;99.90;;;;;;6135471;23;20044;-85
2022/03/03 05:30:40;;;;;;;36.05;16.63;;;-1.70;99.90;;;;;;6159478;23;19912;-84
2022/03/03 05:33:05;;;;;;;;;;;-1.70;99.90;;;;;;6159852;23;20380;-84
2022/03/03 05:35:31;;;;;;;28.10;17.17;;;-1.70;99.90;;;;;;6158952;23;19923;-85
2022/03/03 05:37:57;;;;;;;;;;;-1.70;99.90;;;;;;6185017;23;20025;-84
2022/03/03 05:40:22;;;;;;;29.08;16.33;;;-1.10;99.90;;;;;;6184003;23;20244;-85
2022/03/03 05:42:48;;;;;;;33.67;18.35;;;-1.70;99.90;;;;;;6159870;23;20017;-85
2022/03/03 05:45:14;;;;;;;;;;;-1.10;99.90;;;;;;6185364;23;20029;-85
2022/03/03 05:47:41;;;;;;;32.05;15.73;;;-1.80;99.90;;;;;;6159806;23;20236;-85
2022/03/03 05:50:07;;;;;;;33.80;16.05;;;-1.80;99.90;;;;;;6134453;23;20021;-85
2022/03/03 05:52:33;;;;;;;29.38;18.00;;;-1.90;99.90;;;;;;6159211;23;20025;-84
2022/03/03 05:55:00;;;;;;;34.47;17.58;;;-1.90;99.90;;;;;;6158741;23;20024;-84
2022/03/03 05:57:38;;;;;;;33.85;18.63;;;-1.90;99.90;;;;;;6160622;23;20017;-84
2022/03/03 06:00:08;;;;;;;35.20;17.48;;;-2.00;99.90;;;;;;6182996;23;20017;-83
2022/03/03 06:02:35;;;;;;;29.27;17.25;;;-2.00;99.90;;;;;;6183481;23;20040;-83
2022/03/03 06:05:03;;;;;;;36.25;16.00;;;-2.00;99.90;;;;;;6182267;23;20336;-84
2022/03/03 06:07:31;;;;;;;34.95;17.83;;;-2.00;99.90;;;;;;6183227;23;20025;-84
2022/03/03 06:09:57;;;;;;;43.38;18.98;;;-1.70;99.90;;;;;;6183190;23;20526;-84
2022/03/03 06:12:33;;;;;;;30.60;16.05;;;-2.00;99.90;;;;;;6158175;23;20028;-84
2022/03/03 06:15:04;;;;;;;35.72;19.23;;;-2.00;99.90;;;;;;6182078;23;20091;-84
2022/03/03 06:17:30;;;;;;;33.25;17.02;;;-2.00;99.90;;;;;;6183271;23;20017;-84
2022/03/03 06:20:00;;;;;;;39.55;16.75;;;-2.10;99.90;;;;;;6181823;23;20017;-84
2022/03/03 06:22:26;;;;;;;32.30;17.35;;;-2.10;99.90;;;;;;6183406;23;20013;-84
2022/03/03 06:24:52;;;;;;;34.83;18.00;;;-1.10;99.90;;;;;;6183729;23;20021;-85
2022/03/03 06:27:18;;;;;;;37.90;17.58;;;-2.10;99.90;;;;;;6140256;23;20023;-85
2022/03/03 06:29:43;;;;;;;;;;;-1.20;99.90;;;;;;6159200;23;20025;-83
2022/03/03 06:32:11;;;;;;;31.45;17.60;;;-0.50;99.90;;;;;;6183398;23;19912;-83
2022/03/03 06:34:37;;;;;;;32.45;18.05;;;-2.00;99.90;;;;;;6182837;23;20032;-84
2022/03/03 06:37:04;;;;;;;33.72;17.55;;;-2.00;99.90;;;;;;6158265;23;20448;-84
2022/03/03 06:39:29;;;;;;;28.27;17.13;;;-2.00;99.90;;;;;;6183325;23;20024;-83
2022/03/03 06:41:55;;;;;;;38.75;18.95;;;-2.00;99.90;;;;;;6183283;23;20344;-83
2022/03/03 06:44:21;;;;;;;;;;;-2.00;99.90;;;;;;6183543;23;20345;-84
2022/03/03 06:46:47;;;;;;;24.15;16.00;;;-1.90;99.90;;;;;;6182813;23;20006;-83
2022/03/03 06:49:12;;;;;;;;;;;-1.90;99.90;;;;;;6183720;23;20096;-84
2022/03/03 06:51:47;;;;;;;36.15;18.33;;;-1.20;99.90;;;;;;6182999;23;19943;-84
2022/03/03 06:54:16;;;;;;;35.22;19.23;;;-1.90;99.90;;;;;;6189828;23;20144;-83
2022/03/03 06:56:57;;;;;;;34.35;18.75;;;-1.10;99.90;;;;;;6166488;23;20017;-84
2022/03/03 06:59:29;;;;;;;27.80;16.30;;;-1.80;99.90;;;;;;6182923;23;20396;-83
2022/03/03 07:01:56;;;;;;;36.72;17.58;;;-1.70;99.90;;;;;;6157261;23;20017;-84
2022/03/03 07:04:23;;;;;;;43.53;21.50;;;-1.60;99.90;;;;;;6156444;23;20028;-85
2022/03/03 07:06:50;;;;;;;38.92;20.48;;;-1.60;99.90;;;;;;6157397;23;20017;-85
2022/03/03 07:09:21;;;;;;;34.58;20.77;;;0.00;99.90;;;;;;6158092;23;20345;-85
2022/03/03 07:11:49;;;;;;;35.92;18.60;;;-1.40;99.90;;;;;;6182296;23;20020;-85
2022/03/03 07:14:15;;;;;;;33.15;18.17;;;-1.40;99.90;;;;;;6206058;23;20337;-85
2022/03/03 07:16:53;;;;;;;45.47;20.33;;;-1.30;99.90;;;;;;6155060;23;20058;-85
2022/03/03 07:19:28;;;;;;;39.10;18.95;;;-1.20;99.90;;;;;;6179727;23;20013;-85
2022/03/03 07:22:07;;;;;;;32.20;18.75;;;-1.20;99.90;;;;;;6181876;23;20024;-85
2022/03/03 07:24:51;;;;;;;43.58;22.98;;;-1.10;99.90;;;;;;6158821;23;20327;-85
2022/03/03 07:27:20;;;;;;;44.88;21.98;;;-0.80;99.90;;;;;;6181940;23;20024;-85
2022/03/03 07:29:54;;;;;;;48.20;22.00;;;-0.90;99.90;;;;;;6157135;23;20013;-85
2022/03/03 07:32:33;;;;;;;34.50;19.35;;;-0.80;99.90;;;;;;6206415;23;20017;-84
2022/03/03 07:35:14;;;;;;;40.67;20.10;;;-0.70;99.90;;;;;;6182058;23;20021;-84
2022/03/03 07:38:05;;;;;;;37.88;17.67;;;0.30;99.90;;;;;;6181239;23;20017;-85
2022/03/03 07:40:32;;;;;;;37.60;21.38;;;-0.50;99.90;;;;;;6180949;23;20028;-85
2022/03/03 07:42:59;;;;;;;52.13;20.80;;;-0.50;99.90;;;;;;6155647;23;20013;-84
2022/03/03 07:45:26;;;;;;;49.90;19.55;;;-0.20;99.90;;;;;;6179891;23;20241;-84
2022/03/03 07:47:55;;;;;;;30.75;17.65;;;-0.30;99.90;;;;;;6157830;23;20453;-85
2022/03/03 07:50:21;;;;;;;38.83;17.83;;;-0.20;99.90;;;;;;6134444;23;20410;-84
2022/03/03 07:52:49;;;;;;;35.38;20.30;;;-0.10;99.90;;;;;;6158681;23;20020;-84
2022/03/03 07:55:15;;;;;;;40.70;18.83;;;0.00;99.90;;;;;;6183324;23;20021;-84
2022/03/03 07:58:06;;;;;;;43.75;21.05;;;0.00;99.90;;;;;;6183024;23;20017;-84
2022/03/03 08:00:34;;;;;;;35.67;19.42;;;0.40;99.90;;;;;;6182699;23;20024;-85
2022/03/03 08:03:04;;;;;;;33.95;17.25;;;0.20;99.90;;;;;;6158182;23;20464;-84
2022/03/03 08:05:31;;;;;;;38.83;18.05;;;0.20;99.90;;;;;;6157779;23;20100;-84
2022/03/03 08:08:00;;;;;;;42.25;20.48;;;1.10;99.90;;;;;;6182658;23;20032;-85
2022/03/03 08:10:27;;;;;;;29.65;16.58;;;0.40;99.90;;;;;;6157906;23;20060;-85
2022/03/03 08:12:59;;;;;;;37.70;17.20;;;0.50;99.90;;;;;;6182598;23;20017;-84
2022/03/03 08:15:25;;;;;;;35.15;16.60;;;0.80;99.90;;;;;;6183003;23;20028;-84
2022/03/03 08:17:52;;;;;;;36.53;17.33;;;0.60;99.90;;;;;;6162564;23;20048;-84
2022/03/03 08:20:19;;;;;;;31.52;17.88;;;0.70;99.90;;;;;;6188208;23;20028;-83
2022/03/03 08:22:46;;;;;;;31.30;17.15;;;0.80;99.90;;;;;;6188676;23;20017;-84
2022/03/03 08:25:12;;;;;;;35.75;18.52;;;0.90;99.90;;;;;;6189121;23;20016;-85
2022/03/03 08:27:40;;;;;;;44.25;19.17;;;1.00;99.90;;;;;;6164012;23;20416;-84
2022/03/03 08:30:08;;;;;;;39.72;18.15;;;1.20;99.90;;;;;;6163367;23;20021;-85
2022/03/03 08:32:55;;;;;;;28.25;15.10;;;1.20;99.90;;;;;;6164153;23;20032;-86
2022/03/03 08:35:27;;;;;;;34.58;16.90;;;1.30;99.90;;;;;;6188498;23;20032;-86
2022/03/03 08:38:02;;;;;;;33.80;15.60;;;1.40;99.90;;;;;;6140176;23;20072;-84
2022/03/03 08:40:29;;;;;;;35.35;17.42;;;1.50;99.90;;;;;;6190585;23;20021;-85
2022/03/03 08:43:00;;;;;;;32.63;17.52;;;1.60;99.90;;;;;;6162979;23;20028;-85
2022/03/03 08:45:29;;;;;;;33.65;18.33;;;1.70;99.90;;;;;;6163896;23;20037;-84
2022/03/03 08:47:58;;;;;;;36.47;16.85;;;1.80;99.90;;;;;;6166489;23;20024;-86
2022/03/03 08:50:27;;;;;;;34.85;17.15;;;1.90;99.90;;;;;;6141698;23;20108;-84
2022/03/03 08:52:54;;;;;;;32.95;17.55;;;2.20;99.90;;;;;;6189650;23;20023;-85
2022/03/03 08:55:20;;;;;;;28.90;16.15;;;2.00;99.90;;;;;;6191374;23;20017;-86
2022/03/03 08:57:46;;;;;;;33.85;17.65;;;2.10;99.90;;;;;;6168260;23;20096;-85
2022/03/03 09:00:12;;;;;;;32.22;18.60;;;2.20;99.90;;;;;;6165962;23;20024;-85
2022/03/03 09:02:40;;;;;;;;;;;2.30;99.90;;;;;;6191276;23;20024;-84
2022/03/03 09:05:07;;;;;;;34.47;16.45;;;2.40;99.90;;;;;;6166240;23;19979;-83
2022/03/03 09:07:33;;;;;;;28.90;16.92;;;2.40;99.90;;;;;;6166068;23;20511;-85
2022/03/03 09:10:06;;;;;;;28.38;15.90;;;2.50;99.90;;;;;;6190781;23;20021;-91
2022/03/03 09:12:32;;;;;;;31.73;16.65;;;2.60;99.90;;;;;;6166770;23;20025;-84
2022/03/03 09:15:00;;;;;;;35.97;17.60;;;2.70;99.90;;;;;;6165539;23;20326;-86
2022/03/03 09:17:26;;;;;;;30.13;16.50;;;3.00;99.90;;;;;;6142079;23;20013;-85
2022/03/03 09:19:51;;;;;;;;;;;2.80;99.90;;;;;;6169388;23;20092;-85
2022/03/03 09:22:17;;;;;;;32.95;15.35;;;3.20;99.90;;;;;;6168991;23;19919;-84
2022/03/03 09:24:43;;;;;;;35.08;17.27;;;3.90;99.90;;;;;;6118416;23;20451;-85
2022/03/03 09:27:09;;;;;;;38.15;15.82;;;3.10;99.90;;;;;;6191892;23;20444;-84
2022/03/03 09:29:44;;;;;;;29.90;15.13;;;3.20;99.90;;;;;;6191677;23;20088;-85
2022/03/03 09:32:13;;;;;;;32.67;16.17;;;3.30;99.90;;;;;;6192895;23;20453;-83
2022/03/03 09:34:39;;;;;;;29.40;15.25;;;3.40;99.90;;;;;;6168038;23;20024;-84
2022/03/03 09:37:06;;;;;;;23.13;13.80;;;2.70;99.90;;;;;;6121320;23;20013;-83
2022/03/03 09:39:32;;;;;;;24.80;15.00;;;4.40;99.90;;;;;;6189947;23;20023;-84
2022/03/03 09:41:58;;;;;;;26.48;14.50;;;3.70;99.90;;;;;;6165636;23;20096;-84
2022/03/03 09:44:25;;;;;;;27.52;15.13;;;3.80;99.90;;;;;;6140634;23;20024;-83
2022/03/03 09:46:53;;;;;;;27.00;13.32;;;3.90;99.90;;;;;;6169767;23;20021;-83
2022/03/03 09:49:19;;;;;;;28.05;14.98;;;4.00;99.90;;;;;;6167074;23;20017;-83
2022/03/03 09:51:47;;;;;;;29.85;13.63;;;4.10;99.90;;;;;;6142129;23;20020;-84
2022/03/03 09:54:13;;;;;;;23.73;14.45;;;4.20;99.90;;;;;;6188736;23;20025;-85
2022/03/03 09:56:39;;;;;;;;;;;4.30;99.90;;;;;;6163564;23;20024;-85
2022/03/03 09:59:07;;;;;;;23.05;13.20;;;4.40;99.90;;;;;;6161781;23;19944;-84
2022/03/03 10:01:33;;;;;;;25.20;13.05;;;4.50;99.90;;;;;;6163300;23;20017;-83
2022/03/03 10:04:14;;;;;;;23.60;13.15;;;4.50;99.90;;;;;;6186329;23;20021;-84
2022/03/03 10:06:44;;;;;;;20.52;12.38;;;4.70;99.90;;;;;;6161275;23;20478;-83
2022/03/03 10:09:11;;;;;;;27.23;14.00;;;4.80;99.90;;;;;;6135362;23;20130;-84
2022/03/03 10:11:48;;;;;;;28.83;13.07;;;5.70;99.90;;;;;;6183159;23;20340;-84
2022/03/03 10:14:25;;;;;;;24.05;13.13;;;5.10;99.90;;;;;;6158086;23;20378;-84
2022/03/03 10:16:51;;;;;;;;;;;5.20;99.90;;;;;;6183794;23;20040;-84
2022/03/03 10:19:16;;;;;;;19.90;12.10;;;5.20;99.90;;;;;;6137764;23;19912;-83
2022/03/03 10:21:44;;;;;;;22.58;11.75;;;5.50;99.90;;;;;;6190257;23;20020;-84
2022/03/03 10:24:38;;;;;;;20.45;12.68;;;5.40;99.90;;;;;;6196109;23;20385;-85
2022/03/03 10:27:07;;;;;;;24.60;13.65;;;5.60;99.90;;;;;;6165041;23;20025;-85
2022/03/03 10:29:35;;;;;;;20.52;12.75;;;5.70;99.90;;;;;;6109382;23;20017;-84
2022/03/03 10:32:02;;;;;;;23.25;11.68;;;5.80;99.90;;;;;;6183759;23;20013;-84
2022/03/03 10:34:33;;;;;;;29.88;12.90;;;5.90;99.90;;;;;;6182300;23;20052;-84
2022/03/03 10:37:00;;;;;;;23.20;13.32;;;6.00;99.90;;;;;;6158291;23;20470;-85
2022/03/03 10:39:42;;;;;;;21.60;12.40;;;6.10;99.90;;;;;;6158644;23;20096;-84
2022/03/03 10:42:16;;;;;;;19.92;11.75;;;6.30;99.90;;;;;;6183323;23;20049;-84
2022/03/03 10:44:43;;;;;;;15.77;9.95;;;6.30;99.90;;;;;;6182686;23;20028;-85
2022/03/03 10:47:11;;;;;;;17.83;10.05;;;6.80;99.90;;;;;;6158652;23;20345;-84
2022/03/03 10:49:42;;;;;;;17.20;10.20;;;6.50;99.90;;;;;;6157613;23;20028;-84
2022/03/03 10:52:22;;;;;;;15.27;9.82;;;6.60;99.90;;;;;;6158563;23;20021;-82
2022/03/03 10:54:49;;;;;;;17.30;11.10;;;6.60;99.90;;;;;;6183381;23;20093;-84
2022/03/03 10:57:38;;;;;;;22.02;12.82;;;6.70;99.90;;;;;;6158381;23;20013;-84
2022/03/03 11:00:06;;;;;;;17.98;11.50;;;6.80;99.90;;;;;;6183151;23;20024;-84
2022/03/03 11:02:34;;;;;;;20.95;11.10;;;6.90;99.90;;;;;;6182771;23;20099;-84
2022/03/03 11:05:01;;;;;;;21.38;12.15;;;7.00;99.90;;;;;;6182311;23;20019;-84
2022/03/03 11:07:27;;;;;;;23.75;12.90;;;7.00;99.90;;;;;;6182992;23;20336;-84
2022/03/03 11:09:53;;;;;;;18.42;12.75;;;7.00;99.90;;;;;;6158476;23;20017;-84
2022/03/03 11:12:19;;;;;;;;;;;7.10;99.90;;;;;;6183856;23;20025;-84
2022/03/03 11:14:46;;;;;;;21.42;12.35;;;7.20;99.90;;;;;;6184123;23;20217;-84
2022/03/03 11:17:13;;;;;;;24.67;12.00;;;7.30;99.90;;;;;;6142413;23;20040;-83
2022/03/03 11:19:40;;;;;;;22.15;12.40;;;7.40;99.90;;;;;;6183634;23;20017;-84
2022/03/03 11:22:06;;;;;;;21.45;12.23;;;7.30;99.90;;;;;;6182518;23;20013;-85
2022/03/03 11:24:36;;;;;;;20.73;11.73;;;7.40;99.90;;;;;;6157740;23;20326;-84
2022/03/03 11:27:03;;;;;;;20.38;12.40;;;7.40;99.90;;;;;;6183328;23;20100;-84
2022/03/03 11:29:31;;;;;;;22.42;12.02;;;7.50;99.90;;;;;;6182982;23;20021;-84
2022/03/03 11:32:15;;;;;;;19.55;12.15;;;7.40;99.90;;;;;;6186543;23;20028;-84
2022/03/03 11:34:46;;;;;;;28.08;14.85;;;7.50;99.90;;;;;;6186472;23;20020;-84
2022/03/03 11:37:24;;;;;;;23.27;12.95;;;7.60;99.90;;;;;;6161274;23;20092;-84
2022/03/03 11:40:01;;;;;;;23.52;14.10;;;7.60;99.90;;;;;;6183530;23;20017;-84
2022/03/03 11:42:26;;;;;;;;;;;7.60;99.90;;;;;;6183718;23;20017;-84
2022/03/03 11:44:58;;;;;;;22.55;11.88;;;7.60;99.90;;;;;;6182664;23;19916;-83
2022/03/03 11:47:33;;;;;;;29.17;14.48;;;7.60;99.90;;;;;;6180778;23;20028;-84
2022/03/03 11:50:22;;;;;;;26.45;13.32;;;7.60;99.90;;;;;;6155207;23;20021;-84
2022/03/03 11:52:57;;;;;;;20.98;13.45;;;7.70;99.90;;;;;;6155584;23;20044;-84
2022/03/03 11:55:37;;;;;;;22.70;12.15;;;7.80;99.90;;;;;;6179823;23;20315;-83
2022/03/03 11:58:07;;;;;;;25.35;13.23;;;7.90;99.90;;;;;;6154685;23;20448;-84
2022/03/03 12:00:44;;;;;;;21.85;12.70;;;7.90;99.90;;;;;;6179453;23;20352;-83
2022/03/03 12:03:12;;;;;;;21.90;12.27;;;7.90;99.90;;;;;;6178934;23;20115;-85
2022/03/03 12:05:42;;;;;;;26.23;13.60;;;7.90;99.90;;;;;;6179280;23;20092;-83
2022/03/03 12:08:14;;;;;;;20.33;11.75;;;8.00;99.90;;;;;;6155125;23;20329;-85
2022/03/03 12:11:10;;;;;;;21.33;11.10;;;8.00;99.90;;;;;;6180120;23;20024;-83
2022/03/03 12:13:38;;;;;;;19.23;11.70;;;8.10;99.90;;;;;;6183115;23;20100;-84
2022/03/03 12:16:14;;;;;;;21.92;12.13;;;8.20;99.90;;;;;;6180044;23;20449;-84
2022/03/03 12:18:42;;;;;;;21.45;11.20;;;8.30;99.90;;;;;;6154521;23;20020;-84
2022/03/03 12:21:32;;;;;;;20.13;11.95;;;8.30;99.90;;;;;;6179979;23;20024;-83
2022/03/03 12:24:17;;;;;;;22.40;12.57;;;8.40;99.90;;;;;;6156450;23;20452;-84
2022/03/03 12:27:08;;;;;;;19.02;12.35;;;8.50;99.90;;;;;;6181858;23;20024;-84
2022/03/03 12:29:34;;;;;;;24.02;11.63;;;8.50;99.90;;;;;;6144640;23;20021;-84
2022/03/03 12:32:39;;;;;;;20.05;11.60;;;8.50;99.90;;;;;;6157432;23;20017;-84
2022/03/03 12:35:26;;;;;;;16.52;10.45;;;8.60;99.90;;;;;;6184099;23;20076;-84
2022/03/03 12:37:52;;;;;;;23.23;11.75;;;8.60;99.90;;;;;;6184945;23;20031;-85
2022/03/03 12:40:20;;;;;;;18.58;9.63;;;8.70;99.90;;;;;;6182618;23;20053;-84
2022/03/03 12:42:48;;;;;;;21.80;12.20;;;8.70;99.90;;;;;;6184356;23;20073;-84
2022/03/03 12:45:19;;;;;;;19.60;10.93;;;8.80;99.90;;;;;;6159606;23;20075;-84
2022/03/03 12:47:53;;;;;;;19.10;10.95;;;8.80;99.90;;;;;;6157384;23;20106;-84
2022/03/03 12:50:25;;;;;;;20.75;11.07;;;8.90;99.90;;;;;;6181892;23;20017;-84
2022/03/03 12:53:10;;;;;;;22.67;12.32;;;8.90;99.90;;;;;;6172998;23;20021;-83